Aérodrome :
LOGIN :

S'inscrire | Disclaimer

   EN    FR    IT 

 










Légende :    VFR   VFR Marginal   IFR   IFR Intensif   IFR Très Intensif
Visi : 
Plafond : 
>= 8 km
>= 3000ft
5 à 8 km
1000 à 3000 ft
1500m à 5 km
500 à 1000 ft
800 à 1500m
200 à 500 ft
< 800m
< 200 ft
Symboles :   Orages  Brouillard  Fortes neiges  Fortes précipitations  Vent > 20 kt
SIGMETs :   Divers  Orages  Givrage  Turbulence  Onde Orograph.  Cendres Volcan.






- Altitude de l'aérodrome : 697 ft
- Code IATA : PEG


LIRZ - San Edigio Perugia

DERNIER METAR :
  • 260550Z AUTO 01005KT 9999 R01/1300U VV002 12/12 Q1019

METARs EXPIRÉS :
  • 260520Z AUTO 01003KT 320V040 0350 R01/0500N FG VV002 12/12 Q1019
  • 260450Z AUTO 36007KT 9999 BKN002/// 11/11 Q1018
  • 260420Z AUTO 02005KT 0500 R01/0550N FG VV002 11/11 Q1018
  • 260350Z AUTO 01005KT 1400 R01/0900U BCFG VV002 11/11 Q1018
  • 260320Z AUTO 35005KT 9999 BKN002/// 10/10 Q1018
  • 260250Z AUTO 36006KT 7000 SCT001/// BKN003/// 10/10 Q1018
  • 260220Z AUTO 35004KT 2100 BR BKN001/// 10/10 Q1018
  • 260150Z AUTO 36004KT 2500 BR SCT002/// 10/10 Q1018
  • 260120Z AUTO 36004KT 330V030 8000 BKN002/// 11/11 Q1018

TAF AMD TAF LIRZ
Valide du 26 à 06h jusqu'au 27 à 06h UTC


260532Z 2606/2706 VRB05KT 0400 FG BKN003
BECMG 2608/2610 9999 FEW040



MET'MAP, la Météo Aéronautique d'un coup d'oeil ! - Copyright ORBIFLY Décembre 2007 - Disclaimer

ORBIFLY MET'MAP TEAM :

Programmation & Développement : Alexandra Zaïnal
Sur une idée originale de : Baudouin d'Aumeries
Soutien technique & logistique : Manuel Goepfert
Assistance : Marc-Olivier Méhu




SOURCES & CREDITS :

   NOAA